createdAt,value
2023-05-05T00:12:42.040Z,77.93
2023-05-05T00:27:43.993Z,77.76
2023-05-05T00:42:47.561Z,78.20
2023-05-05T00:57:50.296Z,78.61
2023-05-05T01:13:06.281Z,79.18
2023-05-05T01:28:36.210Z,79.01
2023-05-05T01:43:39.146Z,80.22
2023-05-05T01:58:44.493Z,78.99
2023-05-05T02:13:48.609Z,79.56
2023-05-05T02:28:58.842Z,78.22
2023-05-05T02:44:03.443Z,77.95
2023-05-05T02:59:42.070Z,77.05
2023-05-05T03:14:46.248Z,76.81
2023-05-05T03:29:48.315Z,77.08
2023-05-05T03:44:53.586Z,73.35
2023-05-05T03:59:55.963Z,68.14
2023-05-05T04:14:58.040Z,66.92
2023-05-05T04:30:00.052Z,63.47
2023-05-05T04:45:02.010Z,60.16
2023-05-05T05:00:05.681Z,58.57
2023-05-05T05:15:08.655Z,59.86
2023-05-05T05:30:11.036Z,57.99
2023-05-05T05:45:13.141Z,59.39
2023-05-05T06:00:16.151Z,60.18
2023-05-05T06:15:18.148Z,59.57
2023-05-05T06:30:20.201Z,58.75
2023-05-05T06:45:22.516Z,58.11
2023-05-05T07:00:24.678Z,56.05
2023-05-05T07:15:29.104Z,56.88
2023-05-05T07:30:31.854Z,54.73
2023-05-05T07:45:34.101Z,55.18
2023-05-05T08:00:36.110Z,56.93
2023-05-05T08:15:38.123Z,56.35
2023-05-05T08:30:40.170Z,54.81
2023-05-05T08:45:42.613Z,54.36
2023-05-05T09:00:46.621Z,53.61
2023-05-05T09:15:48.707Z,53.85
2023-05-05T09:30:51.005Z,54.15
2023-05-05T09:46:06.436Z,57.52
2023-05-05T10:01:23.121Z,60.02
2023-05-05T10:16:27.341Z,59.46
2023-05-05T10:32:27.224Z,59.74
2023-05-05T10:47:29.092Z,61.21
2023-05-05T11:02:31.755Z,60.15
2023-05-05T11:17:55.119Z,59.83
2023-05-05T11:33:37.269Z,57.51
2023-05-05T11:48:49.125Z,57.10
2023-05-05T12:03:51.304Z,56.94
2023-05-05T12:19:05.991Z,55.66
2023-05-05T12:34:09.952Z,58.28
2023-05-05T12:49:12.233Z,57.90
2023-05-05T13:04:14.955Z,56.87
2023-05-05T13:19:17.043Z,55.68
2023-05-05T13:34:19.040Z,56.00
2023-05-05T13:49:21.129Z,55.67
2023-05-05T14:04:23.248Z,55.83
2023-05-05T14:19:25.332Z,56.59
2023-05-05T14:34:27.522Z,54.17
2023-05-05T14:49:29.564Z,53.43
2023-05-05T15:04:31.560Z,53.40
2023-05-05T15:19:33.666Z,55.05
2023-05-05T15:34:37.473Z,55.04
2023-05-05T15:49:39.504Z,56.05
2023-05-05T16:04:41.504Z,57.09
2023-05-05T16:19:43.614Z,57.90
2023-05-05T16:34:46.079Z,57.13
2023-05-05T16:49:48.030Z,59.19
2023-05-05T17:04:50.084Z,59.74
2023-05-05T17:19:52.095Z,59.89
2023-05-05T17:34:54.026Z,61.51
2023-05-05T17:49:57.012Z,62.71
2023-05-05T18:04:59.072Z,63.21
2023-05-05T18:20:01.224Z,64.09
2023-05-05T18:35:03.289Z,65.33
2023-05-05T18:50:06.410Z,66.14
2023-05-05T19:05:10.436Z,66.88
2023-05-05T19:20:12.842Z,68.51
2023-05-05T19:35:15.065Z,70.06
2023-05-05T19:50:17.141Z,71.64
2023-05-05T20:05:19.268Z,73.07
2023-05-05T20:20:22.817Z,73.55
2023-05-05T20:35:25.144Z,74.05
2023-05-05T20:50:27.262Z,75.14
2023-05-05T21:05:29.774Z,76.13
2023-05-05T21:20:31.825Z,76.02
2023-05-05T21:35:33.914Z,75.84
2023-05-05T21:50:37.443Z,76.54
2023-05-05T22:05:39.440Z,76.34
2023-05-05T22:20:41.582Z,70.35
2023-05-05T22:35:43.597Z,63.31
2023-05-05T22:50:46.023Z,59.57
2023-05-05T23:05:47.909Z,59.39
2023-05-05T23:20:49.944Z,58.80
2023-05-05T23:35:52.007Z,57.60
2023-05-05T23:50:54.021Z,57.95
